The Hangar Logo

METARs in Plain English
Latest METAR information for EGVN - BRIZE NORTON

EGVN 040950Z 21008KT 9999 SCT022 SCT030 22/15 Q1017 WHT BECMG SCT025 BLU

In plain english is....

This is a METAR report for EGVN - BRIZE NORTON .
The report was made 15 minutes ago, at 09:50 UTC.
The wind was blowing at a speed of 8 knots (9.2 miles per hour, 4.1 metres per second) from the South/Southwest (210°).
The visibility was greater than 6.2 miles (greater than 10 kilometres).
There were scattered clouds at a height of 2200 feet (671 metres) and scattered clouds at a height of 3000 feet (914 metres).
The temperature was 22°C (72°F), a dew point of 15°C (59°F) and a relative humidity of 64.5%.
The altimeter setting (airfield QNH) was 1,017 hPa (30.03 inHg).
Other remarks WHT BECMG SCT025 BLU.

UK Mainland

Ireland

Channel Islands

France

Other



Enter
Tel: 07092 887559 - Fax: 07092 183262

Terms of Use | Privacy Statement
Content copyright © 1999-2012 TheHangar.co.uk. All rights reserved.
Please send your questions, comments, or bug reports to the Webmaster.